Terminal Aerodrome Forecast
Issued by NWS

Home | Current Version | Previous Version | Text Only | Print | Product List | Glossary On
Versions: 1 2 3 4 5 6 7 8 9 10 11 12 13 14 15
000
FTUS43 KABR 231100
TAFMBG
TAF
KMBG 231121Z 2312/2412 14015G26KT P6SM VCSH SCT040 BKN110
     FM231500 15026G35KT P6SM VCSH BKN040
     FM232100 31017KT P6SM VCSH OVC040
     FM240300 31006KT P6SM SCT250=

USA.gov is the U.S. government's official web portal to all federal, state and local government web resources and services.